sensor_id;sensor_type;location;lat;lon;timestamp;P1;durP1;ratioP1;P2;durP2;ratioP2
18210;SDS011;9231;48.852;9.882;2022-12-16T00:01:13;21.73;;;11.27;;
18210;SDS011;9231;48.852;9.882;2022-12-16T00:03:40;18.50;;;10.40;;
18210;SDS011;9231;48.852;9.882;2022-12-16T00:06:08;20.97;;;11.40;;
18210;SDS011;9231;48.852;9.882;2022-12-16T00:08:36;19.00;;;10.50;;
18210;SDS011;9231;48.852;9.882;2022-12-16T00:11:03;17.50;;;10.50;;
18210;SDS011;9231;48.852;9.882;2022-12-16T00:13:30;20.47;;;10.97;;
18210;SDS011;9231;48.852;9.882;2022-12-16T00:16:02;21.50;;;11.40;;
18210;SDS011;9231;48.852;9.882;2022-12-16T00:18:29;18.80;;;10.93;;
18210;SDS011;9231;48.852;9.882;2022-12-16T00:20:55;20.67;;;12.20;;
18210;SDS011;9231;48.852;9.882;2022-12-16T00:23:23;19.83;;;11.03;;
18210;SDS011;9231;48.852;9.882;2022-12-16T00:25:52;24.67;;;10.80;;
18210;SDS011;9231;48.852;9.882;2022-12-16T00:28:18;22.27;;;12.03;;
18210;SDS011;9231;48.852;9.882;2022-12-16T00:30:47;17.00;;;10.40;;
18210;SDS011;9231;48.852;9.882;2022-12-16T00:33:14;19.80;;;11.53;;
18210;SDS011;9231;48.852;9.882;2022-12-16T00:35:40;20.83;;;11.07;;
18210;SDS011;9231;48.852;9.882;2022-12-16T00:38:07;19.73;;;11.33;;
18210;SDS011;9231;48.852;9.882;2022-12-16T00:40:33;19.30;;;11.60;;
18210;SDS011;9231;48.852;9.882;2022-12-16T00:43:01;23.43;;;12.17;;
18210;SDS011;9231;48.852;9.882;2022-12-16T00:45:28;19.50;;;11.40;;
18210;SDS011;9231;48.852;9.882;2022-12-16T00:47:54;23.07;;;12.07;;
18210;SDS011;9231;48.852;9.882;2022-12-16T00:50:21;20.93;;;10.70;;
18210;SDS011;9231;48.852;9.882;2022-12-16T00:52:48;20.57;;;12.03;;
18210;SDS011;9231;48.852;9.882;2022-12-16T00:55:14;20.77;;;12.00;;
18210;SDS011;9231;48.852;9.882;2022-12-16T00:57:41;21.50;;;12.13;;
18210;SDS011;9231;48.852;9.882;2022-12-16T01:00:10;21.30;;;11.63;;
18210;SDS011;9231;48.852;9.882;2022-12-16T01:02:37;21.30;;;12.13;;
18210;SDS011;9231;48.852;9.882;2022-12-16T01:05:04;22.80;;;12.67;;
18210;SDS011;9231;48.852;9.882;2022-12-16T01:07:30;24.27;;;13.43;;
18210;SDS011;9231;48.852;9.882;2022-12-16T01:09:57;25.27;;;12.80;;
18210;SDS011;9231;48.852;9.882;2022-12-16T01:12:34;22.43;;;12.10;;
18210;SDS011;9231;48.852;9.882;2022-12-16T01:15:01;19.70;;;11.40;;
18210;SDS011;9231;48.852;9.882;2022-12-16T01:17:29;21.07;;;13.17;;
18210;SDS011;9231;48.852;9.882;2022-12-16T01:19:55;23.90;;;12.43;;
18210;SDS011;9231;48.852;9.882;2022-12-16T01:22:22;21.67;;;11.37;;
18210;SDS011;9231;48.852;9.882;2022-12-16T01:24:48;20.73;;;11.63;;
18210;SDS011;9231;48.852;9.882;2022-12-16T01:27:15;22.87;;;11.70;;
18210;SDS011;9231;48.852;9.882;2022-12-16T01:29:41;20.87;;;11.60;;
18210;SDS011;9231;48.852;9.882;2022-12-16T01:32:08;21.57;;;12.13;;
18210;SDS011;9231;48.852;9.882;2022-12-16T01:34:36;19.63;;;11.70;;
18210;SDS011;9231;48.852;9.882;2022-12-16T01:37:03;20.43;;;12.23;;
18210;SDS011;9231;48.852;9.882;2022-12-16T01:39:30;25.00;;;13.30;;
18210;SDS011;9231;48.852;9.882;2022-12-16T01:41:56;21.10;;;12.20;;
18210;SDS011;9231;48.852;9.882;2022-12-16T01:44:23;21.50;;;12.73;;
18210;SDS011;9231;48.852;9.882;2022-12-16T01:46:50;23.27;;;12.40;;
18210;SDS011;9231;48.852;9.882;2022-12-16T01:49:19;25.00;;;12.47;;
18210;SDS011;9231;48.852;9.882;2022-12-16T01:51:48;22.10;;;12.40;;
18210;SDS011;9231;48.852;9.882;2022-12-16T01:54:16;20.60;;;12.47;;
18210;SDS011;9231;48.852;9.882;2022-12-16T01:56:44;19.53;;;13.00;;
18210;SDS011;9231;48.852;9.882;2022-12-16T01:59:12;19.13;;;11.67;;
18210;SDS011;9231;48.852;9.882;2022-12-16T02:01:40;22.00;;;12.20;;
18210;SDS011;9231;48.852;9.882;2022-12-16T02:04:06;21.97;;;12.60;;
18210;SDS011;9231;48.852;9.882;2022-12-16T02:06:33;22.70;;;12.57;;
18210;SDS011;9231;48.852;9.882;2022-12-16T02:09:04;23.33;;;12.03;;
18210;SDS011;9231;48.852;9.882;2022-12-16T02:11:35;23.37;;;13.07;;
18210;SDS011;9231;48.852;9.882;2022-12-16T02:14:13;19.60;;;11.97;;
18210;SDS011;9231;48.852;9.882;2022-12-16T02:16:44;24.53;;;12.70;;
18210;SDS011;9231;48.852;9.882;2022-12-16T02:19:21;21.80;;;13.17;;
18210;SDS011;9231;48.852;9.882;2022-12-16T02:21:54;21.57;;;12.30;;
18210;SDS011;9231;48.852;9.882;2022-12-16T02:24:43;23.93;;;12.60;;
18210;SDS011;9231;48.852;9.882;2022-12-16T02:27:20;25.80;;;13.20;;
18210;SDS011;9231;48.852;9.882;2022-12-16T02:29:56;25.63;;;13.43;;
18210;SDS011;9231;48.852;9.882;2022-12-16T02:32:29;20.77;;;11.63;;
18210;SDS011;9231;48.852;9.882;2022-12-16T02:34:57;26.23;;;12.87;;
18210;SDS011;9231;48.852;9.882;2022-12-16T02:37:29;21.47;;;12.57;;
18210;SDS011;9231;48.852;9.882;2022-12-16T02:39:58;22.13;;;12.67;;
18210;SDS011;9231;48.852;9.882;2022-12-16T02:42:25;23.80;;;13.27;;
18210;SDS011;9231;48.852;9.882;2022-12-16T02:44:56;21.73;;;12.47;;
18210;SDS011;9231;48.852;9.882;2022-12-16T02:47:25;26.83;;;13.57;;
18210;SDS011;9231;48.852;9.882;2022-12-16T02:49:54;21.60;;;12.50;;
18210;SDS011;9231;48.852;9.882;2022-12-16T02:52:24;22.10;;;13.10;;
18210;SDS011;9231;48.852;9.882;2022-12-16T02:54:53;24.97;;;13.47;;
18210;SDS011;9231;48.852;9.882;2022-12-16T02:57:31;21.30;;;12.60;;
18210;SDS011;9231;48.852;9.882;2022-12-16T03:00:02;23.90;;;12.87;;
18210;SDS011;9231;48.852;9.882;2022-12-16T03:02:30;23.63;;;13.50;;
18210;SDS011;9231;48.852;9.882;2022-12-16T03:05:03;22.57;;;13.67;;
18210;SDS011;9231;48.852;9.882;2022-12-16T03:07:31;23.10;;;13.83;;
18210;SDS011;9231;48.852;9.882;2022-12-16T03:09:58;21.90;;;13.00;;
18210;SDS011;9231;48.852;9.882;2022-12-16T03:12:25;24.53;;;13.40;;
18210;SDS011;9231;48.852;9.882;2022-12-16T03:14:52;25.73;;;14.17;;
18210;SDS011;9231;48.852;9.882;2022-12-16T03:17:20;27.17;;;14.37;;
18210;SDS011;9231;48.852;9.882;2022-12-16T03:19:49;24.43;;;13.60;;
18210;SDS011;9231;48.852;9.882;2022-12-16T03:22:19;23.03;;;13.83;;
18210;SDS011;9231;48.852;9.882;2022-12-16T03:24:47;22.80;;;13.33;;
18210;SDS011;9231;48.852;9.882;2022-12-16T03:27:15;24.67;;;13.63;;
18210;SDS011;9231;48.852;9.882;2022-12-16T03:29:44;25.83;;;13.97;;
18210;SDS011;9231;48.852;9.882;2022-12-16T03:32:12;22.63;;;14.53;;
18210;SDS011;9231;48.852;9.882;2022-12-16T03:34:42;22.73;;;13.13;;
18210;SDS011;9231;48.852;9.882;2022-12-16T03:37:11;26.07;;;15.77;;
18210;SDS011;9231;48.852;9.882;2022-12-16T03:39:40;25.57;;;14.17;;
18210;SDS011;9231;48.852;9.882;2022-12-16T03:42:07;25.37;;;13.27;;
18210;SDS011;9231;48.852;9.882;2022-12-16T03:44:34;26.47;;;14.13;;
18210;SDS011;9231;48.852;9.882;2022-12-16T03:47:01;22.60;;;13.77;;
18210;SDS011;9231;48.852;9.882;2022-12-16T03:49:27;22.83;;;14.03;;
18210;SDS011;9231;48.852;9.882;2022-12-16T03:51:54;24.47;;;14.47;;
18210;SDS011;9231;48.852;9.882;2022-12-16T03:54:20;26.07;;;14.27;;
18210;SDS011;9231;48.852;9.882;2022-12-16T03:56:48;25.27;;;14.33;;
18210;SDS011;9231;48.852;9.882;2022-12-16T03:59:15;27.73;;;14.27;;
18210;SDS011;9231;48.852;9.882;2022-12-16T04:01:41;25.53;;;14.80;;
18210;SDS011;9231;48.852;9.882;2022-12-16T04:04:08;25.83;;;14.90;;
18210;SDS011;9231;48.852;9.882;2022-12-16T04:06:34;26.53;;;15.40;;
18210;SDS011;9231;48.852;9.882;2022-12-16T04:09:00;26.43;;;14.70;;
18210;SDS011;9231;48.852;9.882;2022-12-16T04:11:27;25.97;;;14.53;;
18210;SDS011;9231;48.852;9.882;2022-12-16T04:14:12;27.40;;;15.80;;
18210;SDS011;9231;48.852;9.882;2022-12-16T04:16:56;27.53;;;15.53;;
18210;SDS011;9231;48.852;9.882;2022-12-16T04:19:41;29.73;;;15.13;;
18210;SDS011;9231;48.852;9.882;2022-12-16T04:22:26;25.77;;;15.13;;
18210;SDS011;9231;48.852;9.882;2022-12-16T04:25:13;26.10;;;13.93;;
18210;SDS011;9231;48.852;9.882;2022-12-16T04:27:40;27.77;;;15.30;;
18210;SDS011;9231;48.852;9.882;2022-12-16T04:30:13;24.30;;;14.07;;
18210;SDS011;9231;48.852;9.882;2022-12-16T04:32:46;28.30;;;14.90;;
18210;SDS011;9231;48.852;9.882;2022-12-16T04:35:30;25.00;;;13.57;;
18210;SDS011;9231;48.852;9.882;2022-12-16T04:38:14;26.47;;;13.80;;
18210;SDS011;9231;48.852;9.882;2022-12-16T04:40:58;25.63;;;13.93;;
18210;SDS011;9231;48.852;9.882;2022-12-16T04:43:42;21.33;;;12.43;;
18210;SDS011;9231;48.852;9.882;2022-12-16T04:46:27;25.67;;;14.30;;
18210;SDS011;9231;48.852;9.882;2022-12-16T04:49:11;22.30;;;11.97;;
18210;SDS011;9231;48.852;9.882;2022-12-16T04:51:55;25.03;;;14.53;;
18210;SDS011;9231;48.852;9.882;2022-12-16T04:54:39;21.17;;;12.30;;
18210;SDS011;9231;48.852;9.882;2022-12-16T04:57:23;25.90;;;13.77;;
18210;SDS011;9231;48.852;9.882;2022-12-16T05:00:07;22.53;;;12.57;;
18210;SDS011;9231;48.852;9.882;2022-12-16T05:02:53;24.53;;;13.63;;
18210;SDS011;9231;48.852;9.882;2022-12-16T05:05:36;21.57;;;12.90;;
18210;SDS011;9231;48.852;9.882;2022-12-16T05:08:20;22.33;;;12.57;;
18210;SDS011;9231;48.852;9.882;2022-12-16T05:11:04;21.37;;;12.97;;
18210;SDS011;9231;48.852;9.882;2022-12-16T05:13:48;23.60;;;12.60;;
18210;SDS011;9231;48.852;9.882;2022-12-16T05:16:32;21.50;;;12.07;;
18210;SDS011;9231;48.852;9.882;2022-12-16T05:19:18;23.50;;;13.47;;
18210;SDS011;9231;48.852;9.882;2022-12-16T05:22:02;27.07;;;12.83;;
18210;SDS011;9231;48.852;9.882;2022-12-16T05:24:46;21.13;;;12.27;;
18210;SDS011;9231;48.852;9.882;2022-12-16T05:27:29;23.87;;;13.13;;
18210;SDS011;9231;48.852;9.882;2022-12-16T05:30:13;22.70;;;11.73;;
18210;SDS011;9231;48.852;9.882;2022-12-16T05:32:54;25.13;;;13.27;;
18210;SDS011;9231;48.852;9.882;2022-12-16T05:35:39;20.20;;;11.63;;
18210;SDS011;9231;48.852;9.882;2022-12-16T05:38:22;26.77;;;13.67;;
18210;SDS011;9231;48.852;9.882;2022-12-16T05:41:06;22.40;;;13.17;;
18210;SDS011;9231;48.852;9.882;2022-12-16T05:43:50;21.93;;;12.03;;
18210;SDS011;9231;48.852;9.882;2022-12-16T05:46:37;24.87;;;13.67;;
18210;SDS011;9231;48.852;9.882;2022-12-16T05:49:21;23.63;;;13.13;;
18210;SDS011;9231;48.852;9.882;2022-12-16T05:52:07;18.73;;;11.40;;
18210;SDS011;9231;48.852;9.882;2022-12-16T05:54:50;24.10;;;12.53;;
18210;SDS011;9231;48.852;9.882;2022-12-16T05:57:34;22.63;;;12.07;;
18210;SDS011;9231;48.852;9.882;2022-12-16T06:00:18;19.67;;;11.93;;
18210;SDS011;9231;48.852;9.882;2022-12-16T06:03:02;21.60;;;11.77;;
18210;SDS011;9231;48.852;9.882;2022-12-16T06:05:46;24.37;;;12.33;;
18210;SDS011;9231;48.852;9.882;2022-12-16T06:08:31;21.50;;;12.20;;
18210;SDS011;9231;48.852;9.882;2022-12-16T06:11:15;21.47;;;12.73;;
18210;SDS011;9231;48.852;9.882;2022-12-16T06:13:59;23.23;;;11.83;;
18210;SDS011;9231;48.852;9.882;2022-12-16T06:16:43;20.87;;;12.37;;
18210;SDS011;9231;48.852;9.882;2022-12-16T06:19:38;21.93;;;11.80;;
18210;SDS011;9231;48.852;9.882;2022-12-16T06:22:22;20.47;;;11.57;;
18210;SDS011;9231;48.852;9.882;2022-12-16T06:25:08;20.07;;;11.00;;
18210;SDS011;9231;48.852;9.882;2022-12-16T06:27:51;25.63;;;12.73;;
18210;SDS011;9231;48.852;9.882;2022-12-16T06:30:35;22.00;;;11.87;;
18210;SDS011;9231;48.852;9.882;2022-12-16T06:33:19;20.57;;;12.13;;
18210;SDS011;9231;48.852;9.882;2022-12-16T06:36:03;20.80;;;12.70;;
18210;SDS011;9231;48.852;9.882;2022-12-16T06:38:53;26.30;;;12.73;;
18210;SDS011;9231;48.852;9.882;2022-12-16T06:41:38;19.00;;;11.27;;
18210;SDS011;9231;48.852;9.882;2022-12-16T06:44:22;21.47;;;12.47;;
18210;SDS011;9231;48.852;9.882;2022-12-16T06:47:06;18.93;;;11.87;;
18210;SDS011;9231;48.852;9.882;2022-12-16T06:49:50;21.77;;;12.70;;
18210;SDS011;9231;48.852;9.882;2022-12-16T06:52:33;20.30;;;11.80;;
18210;SDS011;9231;48.852;9.882;2022-12-16T06:55:17;21.40;;;12.00;;
18210;SDS011;9231;48.852;9.882;2022-12-16T06:58:03;20.90;;;12.17;;
18210;SDS011;9231;48.852;9.882;2022-12-16T07:00:47;21.10;;;12.17;;
18210;SDS011;9231;48.852;9.882;2022-12-16T07:03:31;18.67;;;10.97;;
18210;SDS011;9231;48.852;9.882;2022-12-16T07:06:14;18.10;;;11.97;;
18210;SDS011;9231;48.852;9.882;2022-12-16T07:08:58;14.37;;;9.77;;
18210;SDS011;9231;48.852;9.882;2022-12-16T07:11:42;20.07;;;11.93;;
18210;SDS011;9231;48.852;9.882;2022-12-16T07:14:27;21.00;;;11.00;;
18210;SDS011;9231;48.852;9.882;2022-12-16T07:17:11;18.83;;;11.47;;
18210;SDS011;9231;48.852;9.882;2022-12-16T07:19:55;20.70;;;11.90;;
18210;SDS011;9231;48.852;9.882;2022-12-16T07:22:41;18.70;;;10.03;;
18210;SDS011;9231;48.852;9.882;2022-12-16T07:25:24;13.87;;;8.27;;
18210;SDS011;9231;48.852;9.882;2022-12-16T07:28:08;15.40;;;8.37;;
18210;SDS011;9231;48.852;9.882;2022-12-16T07:30:54;15.63;;;9.63;;
18210;SDS011;9231;48.852;9.882;2022-12-16T07:33:38;14.40;;;9.57;;
18210;SDS011;9231;48.852;9.882;2022-12-16T07:36:22;18.03;;;9.60;;
18210;SDS011;9231;48.852;9.882;2022-12-16T07:39:06;18.10;;;9.53;;
18210;SDS011;9231;48.852;9.882;2022-12-16T07:41:49;14.10;;;8.33;;
18210;SDS011;9231;48.852;9.882;2022-12-16T07:44:33;15.57;;;9.13;;
18210;SDS011;9231;48.852;9.882;2022-12-16T07:47:24;14.23;;;8.47;;
18210;SDS011;9231;48.852;9.882;2022-12-16T07:50:08;16.77;;;9.47;;
18210;SDS011;9231;48.852;9.882;2022-12-16T07:52:55;15.27;;;9.30;;
18210;SDS011;9231;48.852;9.882;2022-12-16T07:55:38;16.10;;;9.13;;
18210;SDS011;9231;48.852;9.882;2022-12-16T07:58:22;14.17;;;8.83;;
18210;SDS011;9231;48.852;9.882;2022-12-16T08:01:06;13.53;;;7.47;;
18210;SDS011;9231;48.852;9.882;2022-12-16T08:03:52;15.07;;;9.57;;
18210;SDS011;9231;48.852;9.882;2022-12-16T08:06:35;14.70;;;9.30;;
18210;SDS011;9231;48.852;9.882;2022-12-16T08:09:19;14.10;;;8.90;;
18210;SDS011;9231;48.852;9.882;2022-12-16T08:12:03;14.40;;;7.90;;
18210;SDS011;9231;48.852;9.882;2022-12-16T08:14:47;14.63;;;9.47;;
18210;SDS011;9231;48.852;9.882;2022-12-16T08:17:31;14.73;;;9.40;;
18210;SDS011;9231;48.852;9.882;2022-12-16T08:20:16;15.03;;;8.77;;
18210;SDS011;9231;48.852;9.882;2022-12-16T08:25:30;12.33;;;8.33;;
18210;SDS011;9231;48.852;9.882;2022-12-16T08:28:13;14.43;;;9.20;;
18210;SDS011;9231;48.852;9.882;2022-12-16T08:30:57;15.67;;;9.20;;
18210;SDS011;9231;48.852;9.882;2022-12-16T08:33:41;13.80;;;8.27;;
18210;SDS011;9231;48.852;9.882;2022-12-16T08:36:25;11.97;;;7.83;;
18210;SDS011;9231;48.852;9.882;2022-12-16T08:39:09;15.53;;;10.83;;
18210;SDS011;9231;48.852;9.882;2022-12-16T08:41:55;14.03;;;9.40;;
18210;SDS011;9231;48.852;9.882;2022-12-16T08:44:39;15.60;;;8.50;;
18210;SDS011;9231;48.852;9.882;2022-12-16T08:47:23;12.07;;;7.53;;
18210;SDS011;9231;48.852;9.882;2022-12-16T08:50:07;12.33;;;7.73;;
18210;SDS011;9231;48.852;9.882;2022-12-16T08:52:50;8.90;;;6.37;;
18210;SDS011;9231;48.852;9.882;2022-12-16T08:55:37;9.83;;;7.10;;
18210;SDS011;9231;48.852;9.882;2022-12-16T08:58:22;10.73;;;7.33;;
18210;SDS011;9231;48.852;9.882;2022-12-16T09:01:06;13.80;;;7.37;;
18210;SDS011;9231;48.852;9.882;2022-12-16T09:03:50;9.83;;;6.40;;
18210;SDS011;9231;48.852;9.882;2022-12-16T09:06:34;11.03;;;7.50;;
18210;SDS011;9231;48.852;9.882;2022-12-16T09:09:17;13.57;;;6.83;;
18210;SDS011;9231;48.852;9.882;2022-12-16T09:12:01;11.70;;;8.03;;
18210;SDS011;9231;48.852;9.882;2022-12-16T09:14:47;11.27;;;7.57;;
18210;SDS011;9231;48.852;9.882;2022-12-16T09:17:31;18.43;;;9.30;;
18210;SDS011;9231;48.852;9.882;2022-12-16T09:20:15;8.27;;;5.67;;
18210;SDS011;9231;48.852;9.882;2022-12-16T09:23:00;9.17;;;5.43;;
18210;SDS011;9231;48.852;9.882;2022-12-16T09:25:45;6.77;;;4.50;;
18210;SDS011;9231;48.852;9.882;2022-12-16T09:28:30;9.27;;;5.43;;
18210;SDS011;9231;48.852;9.882;2022-12-16T09:31:15;10.53;;;5.47;;
18210;SDS011;9231;48.852;9.882;2022-12-16T09:34:10;11.10;;;6.73;;
18210;SDS011;9231;48.852;9.882;2022-12-16T09:36:54;9.97;;;6.10;;
18210;SDS011;9231;48.852;9.882;2022-12-16T09:39:38;8.53;;;5.60;;
18210;SDS011;9231;48.852;9.882;2022-12-16T09:42:23;9.33;;;5.87;;
18210;SDS011;9231;48.852;9.882;2022-12-16T09:45:13;9.70;;;6.13;;
18210;SDS011;9231;48.852;9.882;2022-12-16T09:48:03;8.87;;;5.10;;
18210;SDS011;9231;48.852;9.882;2022-12-16T09:50:48;11.47;;;5.73;;
18210;SDS011;9231;48.852;9.882;2022-12-16T09:53:34;9.90;;;5.43;;
18210;SDS011;9231;48.852;9.882;2022-12-16T09:56:21;8.00;;;5.20;;
18210;SDS011;9231;48.852;9.882;2022-12-16T09:59:06;10.10;;;5.80;;
18210;SDS011;9231;48.852;9.882;2022-12-16T10:01:53;6.30;;;5.00;;
18210;SDS011;9231;48.852;9.882;2022-12-16T10:04:39;7.87;;;5.33;;
18210;SDS011;9231;48.852;9.882;2022-12-16T10:07:23;10.67;;;5.57;;
18210;SDS011;9231;48.852;9.882;2022-12-16T10:10:15;9.10;;;5.47;;
18210;SDS011;9231;48.852;9.882;2022-12-16T10:13:02;8.87;;;5.20;;
18210;SDS011;9231;48.852;9.882;2022-12-16T10:15:50;8.87;;;5.03;;
18210;SDS011;9231;48.852;9.882;2022-12-16T10:18:40;7.70;;;4.97;;
18210;SDS011;9231;48.852;9.882;2022-12-16T10:21:28;9.83;;;5.27;;
18210;SDS011;9231;48.852;9.882;2022-12-16T10:24:18;6.10;;;4.20;;
18210;SDS011;9231;48.852;9.882;2022-12-16T10:27:04;9.63;;;5.90;;
18210;SDS011;9231;48.852;9.882;2022-12-16T10:29:51;9.67;;;5.20;;
18210;SDS011;9231;48.852;9.882;2022-12-16T10:32:48;7.60;;;5.00;;
18210;SDS011;9231;48.852;9.882;2022-12-16T10:35:34;8.80;;;5.30;;
18210;SDS011;9231;48.852;9.882;2022-12-16T10:38:21;8.40;;;5.27;;
18210;SDS011;9231;48.852;9.882;2022-12-16T10:41:06;10.93;;;4.87;;
18210;SDS011;9231;48.852;9.882;2022-12-16T10:43:51;7.03;;;4.57;;
18210;SDS011;9231;48.852;9.882;2022-12-16T10:46:36;8.30;;;4.73;;
18210;SDS011;9231;48.852;9.882;2022-12-16T10:49:20;6.63;;;4.60;;
18210;SDS011;9231;48.852;9.882;2022-12-16T10:52:04;10.67;;;5.90;;
18210;SDS011;9231;48.852;9.882;2022-12-16T10:54:54;8.67;;;5.50;;
18210;SDS011;9231;48.852;9.882;2022-12-16T10:57:41;7.07;;;5.27;;
18210;SDS011;9231;48.852;9.882;2022-12-16T11:00:40;8.20;;;5.43;;
18210;SDS011;9231;48.852;9.882;2022-12-16T11:03:25;6.03;;;4.30;;
18210;SDS011;9231;48.852;9.882;2022-12-16T11:06:16;7.87;;;5.30;;
18210;SDS011;9231;48.852;9.882;2022-12-16T11:09:19;8.90;;;5.17;;
18210;SDS011;9231;48.852;9.882;2022-12-16T11:12:21;9.77;;;5.27;;
18210;SDS011;9231;48.852;9.882;2022-12-16T11:15:21;8.20;;;4.90;;
18210;SDS011;9231;48.852;9.882;2022-12-16T11:18:09;8.50;;;5.13;;
18210;SDS011;9231;48.852;9.882;2022-12-16T11:21:02;10.67;;;6.53;;
18210;SDS011;9231;48.852;9.882;2022-12-16T12:03:29;7.37;;;4.60;;
18210;SDS011;9231;48.852;9.882;2022-12-16T12:06:17;7.73;;;3.97;;
18210;SDS011;9231;48.852;9.882;2022-12-16T12:09:04;6.40;;;4.00;;
18210;SDS011;9231;48.852;9.882;2022-12-16T12:24:09;7.40;;;4.00;;
18210;SDS011;9231;48.852;9.882;2022-12-16T12:26:56;6.83;;;4.30;;
18210;SDS011;9231;48.852;9.882;2022-12-16T12:29:45;6.80;;;4.53;;
18210;SDS011;9231;48.852;9.882;2022-12-16T12:32:34;6.03;;;4.47;;
18210;SDS011;9231;48.852;9.882;2022-12-16T12:35:27;7.30;;;4.97;;
18210;SDS011;9231;48.852;9.882;2022-12-16T12:38:12;7.17;;;4.17;;
18210;SDS011;9231;48.852;9.882;2022-12-16T12:40:59;10.10;;;5.30;;
18210;SDS011;9231;48.852;9.882;2022-12-16T12:43:50;8.20;;;4.27;;
18210;SDS011;9231;48.852;9.882;2022-12-16T12:46:36;5.70;;;4.37;;
18210;SDS011;9231;48.852;9.882;2022-12-16T12:49:24;5.30;;;3.67;;
18210;SDS011;9231;48.852;9.882;2022-12-16T12:52:14;6.00;;;4.23;;
18210;SDS011;9231;48.852;9.882;2022-12-16T12:55:03;6.33;;;3.87;;
18210;SDS011;9231;48.852;9.882;2022-12-16T13:00:53;5.50;;;3.80;;
18210;SDS011;9231;48.852;9.882;2022-12-16T13:03:41;8.60;;;4.73;;
18210;SDS011;9231;48.852;9.882;2022-12-16T13:06:26;5.03;;;3.73;;
18210;SDS011;9231;48.852;9.882;2022-12-16T13:12:22;4.90;;;3.17;;
18210;SDS011;9231;48.852;9.882;2022-12-16T13:15:07;6.30;;;3.70;;
18210;SDS011;9231;48.852;9.882;2022-12-16T13:24:27;7.63;;;3.87;;
18210;SDS011;9231;48.852;9.882;2022-12-16T13:27:11;7.33;;;3.90;;
18210;SDS011;9231;48.852;9.882;2022-12-16T13:29:59;6.30;;;4.13;;
18210;SDS011;9231;48.852;9.882;2022-12-16T13:32:52;5.47;;;3.93;;
18210;SDS011;9231;48.852;9.882;2022-12-16T13:35:36;8.33;;;4.67;;
18210;SDS011;9231;48.852;9.882;2022-12-16T13:38:34;6.53;;;4.17;;
18210;SDS011;9231;48.852;9.882;2022-12-16T13:47:30;6.17;;;4.17;;
18210;SDS011;9231;48.852;9.882;2022-12-16T13:50:33;5.33;;;3.83;;
18210;SDS011;9231;48.852;9.882;2022-12-16T13:53:17;8.17;;;3.57;;
18210;SDS011;9231;48.852;9.882;2022-12-16T13:56:02;8.47;;;3.80;;
18210;SDS011;9231;48.852;9.882;2022-12-16T13:58:47;6.07;;;4.07;;
18210;SDS011;9231;48.852;9.882;2022-12-16T14:01:32;7.87;;;4.33;;
18210;SDS011;9231;48.852;9.882;2022-12-16T14:04:34;4.90;;;3.23;;
18210;SDS011;9231;48.852;9.882;2022-12-16T14:07:20;8.03;;;4.17;;
18210;SDS011;9231;48.852;9.882;2022-12-16T14:10:05;8.53;;;5.10;;
18210;SDS011;9231;48.852;9.882;2022-12-16T14:12:56;8.33;;;5.43;;
18210;SDS011;9231;48.852;9.882;2022-12-16T14:15:49;14.73;;;9.50;;
18210;SDS011;9231;48.852;9.882;2022-12-16T14:18:40;13.33;;;7.20;;
18210;SDS011;9231;48.852;9.882;2022-12-16T14:21:29;6.57;;;4.10;;
18210;SDS011;9231;48.852;9.882;2022-12-16T14:24:17;6.27;;;4.07;;
18210;SDS011;9231;48.852;9.882;2022-12-16T14:27:04;6.40;;;3.83;;
18210;SDS011;9231;48.852;9.882;2022-12-16T14:29:51;7.33;;;4.27;;
18210;SDS011;9231;48.852;9.882;2022-12-16T14:32:35;6.30;;;4.23;;
18210;SDS011;9231;48.852;9.882;2022-12-16T14:35:19;7.13;;;4.23;;
18210;SDS011;9231;48.852;9.882;2022-12-16T14:38:22;6.10;;;4.23;;
18210;SDS011;9231;48.852;9.882;2022-12-16T14:41:08;5.60;;;3.37;;
18210;SDS011;9231;48.852;9.882;2022-12-16T14:43:52;6.67;;;3.93;;
18210;SDS011;9231;48.852;9.882;2022-12-16T14:46:36;7.03;;;4.40;;
18210;SDS011;9231;48.852;9.882;2022-12-16T14:49:21;6.37;;;3.93;;
18210;SDS011;9231;48.852;9.882;2022-12-16T14:52:15;5.80;;;3.90;;
18210;SDS011;9231;48.852;9.882;2022-12-16T14:55:05;6.87;;;3.93;;
18210;SDS011;9231;48.852;9.882;2022-12-16T14:58:00;7.17;;;4.20;;
18210;SDS011;9231;48.852;9.882;2022-12-16T15:00:44;8.03;;;4.27;;
18210;SDS011;9231;48.852;9.882;2022-12-16T15:03:28;7.13;;;4.27;;
18210;SDS011;9231;48.852;9.882;2022-12-16T15:06:13;7.03;;;4.80;;
18210;SDS011;9231;48.852;9.882;2022-12-16T15:09:00;9.73;;;5.50;;
18210;SDS011;9231;48.852;9.882;2022-12-16T15:11:47;7.93;;;4.30;;
18210;SDS011;9231;48.852;9.882;2022-12-16T15:14:33;8.20;;;5.57;;
18210;SDS011;9231;48.852;9.882;2022-12-16T15:17:18;7.53;;;4.90;;
18210;SDS011;9231;48.852;9.882;2022-12-16T15:20:03;7.83;;;4.60;;
18210;SDS011;9231;48.852;9.882;2022-12-16T15:22:47;11.13;;;6.63;;
18210;SDS011;9231;48.852;9.882;2022-12-16T15:25:31;10.90;;;5.33;;
18210;SDS011;9231;48.852;9.882;2022-12-16T15:28:22;8.20;;;4.73;;
18210;SDS011;9231;48.852;9.882;2022-12-16T15:31:13;6.67;;;4.73;;
18210;SDS011;9231;48.852;9.882;2022-12-16T15:36:57;7.07;;;4.93;;
18210;SDS011;9231;48.852;9.882;2022-12-16T15:39:52;6.73;;;4.30;;
18210;SDS011;9231;48.852;9.882;2022-12-16T15:42:41;9.10;;;4.80;;
18210;SDS011;9231;48.852;9.882;2022-12-16T15:45:27;6.37;;;3.90;;
18210;SDS011;9231;48.852;9.882;2022-12-16T15:48:15;6.60;;;3.77;;
18210;SDS011;9231;48.852;9.882;2022-12-16T15:51:17;7.00;;;4.50;;
18210;SDS011;9231;48.852;9.882;2022-12-16T15:54:02;8.77;;;4.30;;
18210;SDS011;9231;48.852;9.882;2022-12-16T15:56:45;9.43;;;4.53;;
18210;SDS011;9231;48.852;9.882;2022-12-16T15:59:34;12.17;;;4.50;;
18210;SDS011;9231;48.852;9.882;2022-12-16T16:02:20;9.07;;;5.10;;
18210;SDS011;9231;48.852;9.882;2022-12-16T16:05:11;8.07;;;5.00;;
18210;SDS011;9231;48.852;9.882;2022-12-16T16:07:56;6.87;;;4.80;;
18210;SDS011;9231;48.852;9.882;2022-12-16T16:10:40;9.77;;;4.97;;
18210;SDS011;9231;48.852;9.882;2022-12-16T16:13:24;7.87;;;5.07;;
18210;SDS011;9231;48.852;9.882;2022-12-16T16:16:08;8.03;;;5.77;;
18210;SDS011;9231;48.852;9.882;2022-12-16T16:18:55;6.67;;;4.83;;
18210;SDS011;9231;48.852;9.882;2022-12-16T16:21:38;10.90;;;6.67;;
18210;SDS011;9231;48.852;9.882;2022-12-16T16:24:22;8.27;;;5.27;;
18210;SDS011;9231;48.852;9.882;2022-12-16T16:27:07;8.07;;;5.33;;
18210;SDS011;9231;48.852;9.882;2022-12-16T16:29:53;10.77;;;5.43;;
18210;SDS011;9231;48.852;9.882;2022-12-16T16:32:37;13.73;;;6.20;;
18210;SDS011;9231;48.852;9.882;2022-12-16T16:35:23;11.10;;;6.87;;
18210;SDS011;9231;48.852;9.882;2022-12-16T16:38:07;10.90;;;5.53;;
18210;SDS011;9231;48.852;9.882;2022-12-16T16:40:52;11.03;;;7.47;;
18210;SDS011;9231;48.852;9.882;2022-12-16T16:43:36;9.80;;;5.10;;
18210;SDS011;9231;48.852;9.882;2022-12-16T16:49:22;10.27;;;6.63;;
18210;SDS011;9231;48.852;9.882;2022-12-16T16:52:10;12.17;;;6.57;;
18210;SDS011;9231;48.852;9.882;2022-12-16T16:54:54;8.67;;;5.70;;
18210;SDS011;9231;48.852;9.882;2022-12-16T16:57:38;9.90;;;5.97;;
18210;SDS011;9231;48.852;9.882;2022-12-16T17:00:22;9.73;;;5.80;;
18210;SDS011;9231;48.852;9.882;2022-12-16T17:03:06;9.50;;;5.97;;
18210;SDS011;9231;48.852;9.882;2022-12-16T17:05:50;10.73;;;7.30;;
18210;SDS011;9231;48.852;9.882;2022-12-16T17:08:47;17.60;;;8.87;;
18210;SDS011;9231;48.852;9.882;2022-12-16T17:11:31;7.53;;;5.10;;
18210;SDS011;9231;48.852;9.882;2022-12-16T17:14:16;10.77;;;5.97;;
18210;SDS011;9231;48.852;9.882;2022-12-16T17:17:00;10.47;;;6.50;;
18210;SDS011;9231;48.852;9.882;2022-12-16T17:19:43;9.83;;;5.50;;
18210;SDS011;9231;48.852;9.882;2022-12-16T17:22:28;8.87;;;5.40;;
18210;SDS011;9231;48.852;9.882;2022-12-16T17:25:13;8.47;;;5.70;;
18210;SDS011;9231;48.852;9.882;2022-12-16T17:27:57;12.17;;;5.57;;